Kezdőlap
METAR-TAF:

METAR-TAF

Repülőterek :

Nakhon Ratchasima, Thaiföld

földrajzi szélesség: 14-56-58N, földrajzi hosszúság: 102-18-45E, magasság: 233 m

Jelenlegi meteorológiai megfigyelések

A jelentés 10 perccel ezelõtt készült, 02:00 UTC
Délnyugati szél 6 kt
Hőmérséklet 30°C
Páratartalom 70%
Légköri nyomás 1005 hPa
Látótávolság 10 km, vagy több
Kevés felhő 3000 lábon

METAR: VTUQ 220200Z 22006KT 9999 FEW030 30/24 Q1005 NOSIG

Idő: 09:10 (02:10 UTC)

Előrejelzés

A jelentés 3 órával és 10 perccel ezelõtt készült, 23:00 UTC
Az előrejelzés 22-én 00 óra UTC és 22-én 24 óra UTC között érvényes
Nyugat-délnyugati szél 5 kt
Látótávolság: 9000 m
Szórványos felhőzet 3000 lábon
22-én 05 óra UTC és 22-én 12 óra UTC között ideiglenes
Kevés felhő 1800 lábon, Cumulonimbus.
Szakadozott felhőzet 3000 lábon
zivatar, enyhe esõ,

TAF: VTUQ 212300Z 2200/2224 25005KT 9000 SCT030 TEMPO 2205/2212 -TSRA FEW018CB BKN030

Meteorológiai megfigyelések és előrejelzések több, mint 4000 repülőtéren (METAR és TAF jelentéseket).

A térképen piros és sárga pontok jelzik az elérhető meteorológiai állomásokat.

Mozgassa az egeret a pont fölött, hogy megjelenjen az állomás neve.

Azután kattintson az időjárási megfigyelések és előrejelzések megtekintéséhez.

A térkép megváltoztatása: kattintson a fekete keresztel jelölt zöld gombra ráközelítéshez, a vonallal jelölt zöld gombra távolításhoz, vagy a zöld nyilakra a szomszédos térképek eléréséhez.


METAR-TAF: